createdAt,value
2018-02-09T00:01:28.700Z,44.10
2018-02-09T00:03:55.426Z,40.93
2018-02-09T00:06:22.154Z,39.00
2018-02-09T00:08:48.849Z,44.03
2018-02-09T00:11:15.608Z,38.03
2018-02-09T00:13:42.341Z,44.13
2018-02-09T00:16:09.068Z,41.30
2018-02-09T00:18:35.790Z,40.87
2018-02-09T00:21:02.497Z,52.50
2018-02-09T00:23:29.228Z,40.67
2018-02-09T00:25:55.944Z,38.90
2018-02-09T00:28:22.673Z,38.87
2018-02-09T00:30:49.397Z,40.63
2018-02-09T00:33:16.114Z,40.60
2018-02-09T00:35:42.837Z,40.60
2018-02-09T00:38:09.546Z,36.90
2018-02-09T00:40:36.276Z,37.37
2018-02-09T00:43:03.005Z,42.27
2018-02-09T00:45:29.706Z,43.40
2018-02-09T00:47:56.425Z,40.47
2018-02-09T00:50:23.174Z,38.33
2018-02-09T00:52:49.885Z,40.50
2018-02-09T00:55:16.693Z,33.70
2018-02-09T00:57:43.416Z,35.47
2018-02-09T01:00:10.173Z,42.33
2018-02-09T01:02:36.898Z,37.70
2018-02-09T01:05:03.626Z,40.00
2018-02-09T01:07:30.349Z,41.97
2018-02-09T01:09:57.066Z,41.33
2018-02-09T01:12:23.793Z,37.20
2018-02-09T01:14:50.525Z,45.23
2018-02-09T01:17:17.245Z,41.70
2018-02-09T01:19:43.949Z,39.83
2018-02-09T01:22:10.709Z,50.00
2018-02-09T01:24:37.426Z,35.50
2018-02-09T01:27:04.150Z,40.63
2018-02-09T01:29:30.878Z,39.73
2018-02-09T01:31:57.587Z,39.10
2018-02-09T01:34:24.317Z,37.90
2018-02-09T01:36:51.058Z,37.40
2018-02-09T01:39:17.785Z,38.87
2018-02-09T01:41:44.546Z,42.17
2018-02-09T01:44:11.260Z,46.27
2018-02-09T01:46:37.994Z,40.90
2018-02-09T01:49:04.726Z,42.90
2018-02-09T01:51:31.449Z,39.67
2018-02-09T01:53:58.182Z,39.97
2018-02-09T01:56:24.901Z,39.03
2018-02-09T01:58:51.626Z,35.03
2018-02-09T02:01:18.378Z,39.20
2018-02-09T02:03:45.112Z,40.50
2018-02-09T02:06:11.867Z,37.87
2018-02-09T02:08:38.572Z,38.50
2018-02-09T02:11:05.310Z,35.47
2018-02-09T02:13:32.018Z,37.90
2018-02-09T02:15:58.734Z,38.80
2018-02-09T02:18:25.434Z,35.00
2018-02-09T02:20:52.138Z,36.43
2018-02-09T02:23:18.894Z,41.50
2018-02-09T02:25:45.604Z,33.93
2018-02-09T02:28:12.326Z,37.50
2018-02-09T02:30:39.082Z,40.80
2018-02-09T02:33:05.782Z,43.05
2018-02-09T02:35:32.497Z,38.30
2018-02-09T02:37:59.214Z,41.87
2018-02-09T02:40:25.951Z,38.50
2018-02-09T02:42:52.645Z,39.43
2018-02-09T02:45:19.341Z,40.37
2018-02-09T02:47:46.058Z,39.47
2018-02-09T02:50:12.761Z,38.70
2018-02-09T02:52:39.471Z,40.20
2018-02-09T02:55:06.205Z,43.17
2018-02-09T02:57:32.911Z,41.67
2018-02-09T02:59:59.610Z,39.37
2018-02-09T03:02:26.343Z,43.90
2018-02-09T03:04:53.083Z,41.77
2018-02-09T03:07:19.804Z,39.30
2018-02-09T03:09:46.524Z,40.10
2018-02-09T03:12:13.255Z,40.63
2018-02-09T03:14:39.972Z,44.53
2018-02-09T03:17:06.674Z,43.70
2018-02-09T03:19:33.417Z,46.70
2018-02-09T03:22:00.128Z,39.80
2018-02-09T03:24:26.833Z,43.17
2018-02-09T03:26:53.605Z,47.97
2018-02-09T03:29:20.313Z,45.60
2018-02-09T03:31:47.032Z,44.83
2018-02-09T03:34:13.756Z,49.67
2018-02-09T03:36:40.460Z,45.97
2018-02-09T03:39:07.181Z,51.40
2018-02-09T03:41:33.878Z,49.70
2018-02-09T03:44:00.615Z,54.40
2018-02-09T03:46:27.313Z,46.60
2018-02-09T03:48:54.051Z,50.73
2018-02-09T03:51:20.781Z,54.30
2018-02-09T03:53:47.477Z,43.43
2018-02-09T03:56:14.226Z,47.37
2018-02-09T03:58:40.944Z,40.10
2018-02-09T04:01:07.651Z,44.37
2018-02-09T04:03:34.400Z,46.93
2018-02-09T04:06:01.104Z,45.97
2018-02-09T04:08:27.815Z,49.73
2018-02-09T04:10:54.551Z,45.87
2018-02-09T04:13:21.279Z,41.50
2018-02-09T04:15:47.982Z,48.37
2018-02-09T04:18:14.722Z,42.90
2018-02-09T04:20:41.463Z,55.67
2018-02-09T04:23:08.167Z,55.23
2018-02-09T04:25:34.889Z,52.07
2018-02-09T04:28:01.600Z,43.93
2018-02-09T04:30:28.343Z,50.37
2018-02-09T04:32:55.059Z,51.00
2018-02-09T04:35:21.762Z,50.50
2018-02-09T04:37:48.490Z,56.07
2018-02-09T04:40:15.202Z,45.60
2018-02-09T04:42:41.934Z,48.40
2018-02-09T04:45:08.644Z,51.37
2018-02-09T04:47:35.356Z,48.43
2018-02-09T04:50:02.098Z,48.47
2018-02-09T04:52:28.819Z,49.17
2018-02-09T04:54:55.547Z,51.70
2018-02-09T04:57:22.295Z,57.67
2018-02-09T04:59:49.001Z,50.37
2018-02-09T05:02:15.746Z,55.63
2018-02-09T05:04:42.554Z,53.80
2018-02-09T05:07:09.302Z,60.03
2018-02-09T05:09:36.011Z,65.33
2018-02-09T05:12:02.713Z,58.13
2018-02-09T05:14:29.526Z,57.03
2018-02-09T05:16:56.249Z,52.13
2018-02-09T05:19:22.970Z,51.90
2018-02-09T05:21:49.684Z,52.10
2018-02-09T05:24:16.380Z,54.40
2018-02-09T05:26:43.109Z,49.07
2018-02-09T05:29:09.835Z,53.57
2018-02-09T05:31:36.542Z,46.60
2018-02-09T05:34:03.265Z,51.20
2018-02-09T05:36:29.972Z,53.63
2018-02-09T05:38:56.697Z,52.07
2018-02-09T05:41:23.402Z,51.43
2018-02-09T05:43:50.145Z,63.03
2018-02-09T05:46:16.879Z,48.43
2018-02-09T05:48:43.594Z,57.73
2018-02-09T05:51:10.367Z,55.90
2018-02-09T05:53:37.068Z,54.20
2018-02-09T05:56:03.814Z,53.70
2018-02-09T05:58:30.529Z,50.40
2018-02-09T06:00:57.225Z,62.50
2018-02-09T06:03:23.962Z,60.13
2018-02-09T06:05:50.666Z,61.93
2018-02-09T06:08:17.417Z,61.50
2018-02-09T06:10:44.149Z,61.70
2018-02-09T06:13:10.894Z,65.37
2018-02-09T06:15:37.616Z,68.33
2018-02-09T06:18:04.327Z,70.90
2018-02-09T06:20:31.069Z,69.00
2018-02-09T06:22:57.787Z,60.70
2018-02-09T06:25:24.493Z,72.80
2018-02-09T06:27:51.233Z,61.80
2018-02-09T06:30:18.041Z,62.00
2018-02-09T06:32:44.742Z,59.17
2018-02-09T06:35:11.521Z,84.60
2018-02-09T06:37:38.238Z,98.53
2018-02-09T06:40:04.966Z,112.33
2018-02-09T06:42:31.707Z,97.30
2018-02-09T06:44:58.423Z,101.43
2018-02-09T06:47:25.211Z,105.00
2018-02-09T06:49:51.942Z,109.73
2018-02-09T06:52:18.670Z,122.63
2018-02-09T06:54:45.406Z,113.73
2018-02-09T06:57:12.114Z,108.60
2018-02-09T06:59:38.829Z,113.07
2018-02-09T07:02:05.562Z,110.30
2018-02-09T07:04:32.280Z,107.43
2018-02-09T07:06:59.028Z,113.27
2018-02-09T07:09:25.745Z,110.40
2018-02-09T07:11:52.452Z,110.00
2018-02-09T07:14:19.202Z,106.77
2018-02-09T07:16:45.900Z,105.00
2018-02-09T07:19:12.653Z,114.47
2018-02-09T07:21:39.376Z,124.93
2018-02-09T07:24:06.089Z,114.03
2018-02-09T07:26:32.816Z,120.43
2018-02-09T07:28:59.552Z,118.77
2018-02-09T07:31:26.275Z,117.83
2018-02-09T07:33:52.988Z,113.13
2018-02-09T07:36:19.697Z,117.67
2018-02-09T07:38:46.426Z,116.63
2018-02-09T07:41:13.138Z,129.63
2018-02-09T07:43:39.863Z,106.40
2018-02-09T07:46:06.574Z,111.03
2018-02-09T07:48:33.290Z,104.97
2018-02-09T07:51:00.094Z,106.87
2018-02-09T07:53:26.798Z,109.50
2018-02-09T07:55:53.527Z,117.80
2018-02-09T07:58:20.304Z,115.60
2018-02-09T08:00:47.014Z,122.07
2018-02-09T08:03:13.771Z,115.80
2018-02-09T08:05:40.493Z,124.23
2018-02-09T08:08:07.224Z,123.80
2018-02-09T08:10:33.965Z,112.50
2018-02-09T08:13:00.723Z,116.50
2018-02-09T08:15:27.465Z,118.73
2018-02-09T08:17:54.202Z,122.63
2018-02-09T08:20:20.902Z,109.47
2018-02-09T08:22:47.647Z,103.10
2018-02-09T08:25:14.387Z,99.90
2018-02-09T08:27:41.092Z,109.63
2018-02-09T08:30:07.798Z,104.77
2018-02-09T08:32:37.480Z,107.63
2018-02-09T08:35:10.645Z,108.60
2018-02-09T08:37:38.073Z,101.73
2018-02-09T08:40:05.344Z,112.83
2018-02-09T08:42:38.071Z,101.63
2018-02-09T08:45:05.279Z,105.37
2018-02-09T08:47:31.986Z,102.10
2018-02-09T08:49:58.724Z,99.13
2018-02-09T08:52:25.454Z,110.43
2018-02-09T08:54:52.163Z,104.47
2018-02-09T08:57:18.901Z,107.73
2018-02-09T08:59:45.717Z,105.40
2018-02-09T09:02:12.460Z,108.37
2018-02-09T09:04:39.169Z,104.17
2018-02-09T09:07:05.877Z,116.77
2018-02-09T09:09:32.634Z,98.83
2018-02-09T09:11:59.373Z,100.10
2018-02-09T09:14:26.106Z,104.03
2018-02-09T09:16:52.854Z,114.43
2018-02-09T09:19:19.582Z,102.43
2018-02-09T09:21:46.342Z,97.53
2018-02-09T09:24:13.082Z,116.23
2018-02-09T09:26:39.836Z,110.87
2018-02-09T09:29:06.601Z,97.60
2018-02-09T09:31:33.318Z,107.27
2018-02-09T09:34:00.055Z,107.33
2018-02-09T09:36:26.887Z,102.83
2018-02-09T09:38:53.614Z,103.33
2018-02-09T09:41:20.349Z,98.30
2018-02-09T09:43:47.093Z,98.67
2018-02-09T09:46:13.825Z,89.30
2018-02-09T09:48:40.616Z,89.27
2018-02-09T09:51:07.457Z,94.43
2018-02-09T09:53:34.191Z,92.77
2018-02-09T09:56:00.945Z,106.00
2018-02-09T09:58:27.707Z,103.27
2018-02-09T10:00:54.436Z,89.53
2018-02-09T10:03:21.161Z,85.37
2018-02-09T10:05:47.886Z,85.63
2018-02-09T10:08:14.650Z,91.33
2018-02-09T10:10:41.376Z,88.53
2018-02-09T10:13:08.126Z,98.73
2018-02-09T10:15:34.868Z,96.63
2018-02-09T10:18:01.562Z,87.20
2018-02-09T10:20:28.277Z,79.17
2018-02-09T10:22:55.022Z,90.20
2018-02-09T10:25:21.775Z,84.93
2018-02-09T10:27:48.517Z,78.93
2018-02-09T10:30:15.248Z,98.27
2018-02-09T10:32:41.957Z,82.43
2018-02-09T10:35:08.692Z,87.37
2018-02-09T10:37:35.552Z,85.00
2018-02-09T10:40:03.202Z,82.97
2018-02-09T10:42:29.925Z,97.60
2018-02-09T10:44:56.759Z,87.83
2018-02-09T10:47:23.570Z,99.83
2018-02-09T10:49:50.289Z,81.60
2018-02-09T10:52:17.041Z,79.53
2018-02-09T10:54:43.785Z,81.30
2018-02-09T10:57:10.574Z,86.87
2018-02-09T10:59:37.332Z,72.83
2018-02-09T11:02:04.049Z,80.60
2018-02-09T11:04:30.775Z,82.37
2018-02-09T11:06:57.518Z,86.90
2018-02-09T11:09:29.862Z,87.33
2018-02-09T11:11:58.584Z,86.23
2018-02-09T11:14:25.321Z,95.93
2018-02-09T11:16:52.088Z,98.13
2018-02-09T11:19:18.825Z,86.07
2018-02-09T11:21:45.606Z,104.73
2018-02-09T11:24:12.337Z,97.47
2018-02-09T11:26:39.047Z,101.10
2018-02-09T11:29:05.807Z,110.67
2018-02-09T11:31:32.546Z,99.80
2018-02-09T11:33:59.322Z,94.87
2018-02-09T11:36:26.078Z,95.50
2018-02-09T11:38:52.877Z,94.87
2018-02-09T11:41:19.641Z,105.57
2018-02-09T11:43:46.386Z,104.43
2018-02-09T11:46:13.103Z,103.83
2018-02-09T11:48:39.864Z,106.83
2018-02-09T11:51:06.585Z,99.67
2018-02-09T11:53:33.340Z,102.60
2018-02-09T11:56:00.054Z,98.20
2018-02-09T11:58:26.812Z,98.13
2018-02-09T12:00:54.889Z,93.93
2018-02-09T12:03:21.618Z,109.37
2018-02-09T12:05:48.386Z,103.73
2018-02-09T12:08:15.149Z,98.57
2018-02-09T12:10:41.941Z,99.63
2018-02-09T12:13:08.712Z,103.50
2018-02-09T12:15:35.466Z,92.80
2018-02-09T12:18:02.204Z,88.83
2018-02-09T12:20:28.958Z,97.67
2018-02-09T12:22:55.669Z,92.90
2018-02-09T12:25:22.423Z,102.30
2018-02-09T12:27:49.215Z,102.50
2018-02-09T12:30:15.931Z,99.23
2018-02-09T12:32:42.699Z,107.10
2018-02-09T12:35:09.445Z,113.93
2018-02-09T12:37:36.157Z,107.43
2018-02-09T12:40:02.897Z,95.50
2018-02-09T12:42:29.622Z,93.40
2018-02-09T12:44:56.331Z,95.87
2018-02-09T12:47:23.073Z,100.53
2018-02-09T12:49:49.794Z,106.63
2018-02-09T12:52:16.531Z,103.87
2018-02-09T12:54:43.266Z,103.30
2018-02-09T12:57:10.005Z,102.20
2018-02-09T12:59:36.752Z,114.10
2018-02-09T13:02:03.481Z,99.73
2018-02-09T13:04:30.309Z,98.87
2018-02-09T13:06:57.041Z,100.90
2018-02-09T13:09:23.797Z,104.53
2018-02-09T13:11:50.527Z,92.13
2018-02-09T13:14:23.189Z,99.57
2018-02-09T13:16:49.918Z,101.50
2018-02-09T13:19:16.636Z,101.33
2018-02-09T13:21:43.349Z,108.90
2018-02-09T13:24:15.935Z,95.97
2018-02-09T13:26:42.664Z,109.70
2018-02-09T13:29:09.465Z,112.43
2018-02-09T13:31:36.249Z,102.73
2018-02-09T13:34:03.002Z,103.70
2018-02-09T13:36:35.545Z,99.67
2018-02-09T13:39:02.290Z,97.67
2018-02-09T13:41:29.024Z,98.37
2018-02-09T13:43:55.741Z,109.43
2018-02-09T13:46:22.533Z,103.33
2018-02-09T13:48:49.304Z,101.37
2018-02-09T13:51:16.018Z,110.20
2018-02-09T13:53:42.753Z,111.17
2018-02-09T13:56:09.506Z,110.97
2018-02-09T13:58:36.229Z,114.97
2018-02-09T14:01:03.032Z,110.43
2018-02-09T14:03:29.789Z,113.10
2018-02-09T14:05:56.509Z,128.37
2018-02-09T14:08:23.237Z,110.63
2018-02-09T14:10:49.963Z,108.87
2018-02-09T14:13:16.693Z,105.00
2018-02-09T14:15:43.433Z,104.60
2018-02-09T14:18:10.168Z,114.80
2018-02-09T14:20:36.878Z,114.47
2018-02-09T14:23:03.628Z,111.63
2018-02-09T14:25:30.329Z,105.07
2018-02-09T14:27:57.034Z,109.40
2018-02-09T14:30:23.782Z,116.07
2018-02-09T14:32:50.500Z,109.63
2018-02-09T14:35:17.219Z,111.80
2018-02-09T14:37:44.041Z,110.67
2018-02-09T14:40:10.717Z,113.80
2018-02-09T14:42:37.469Z,106.47
2018-02-09T14:45:04.267Z,107.53
2018-02-09T14:47:30.961Z,111.07
2018-02-09T14:49:57.733Z,112.23
2018-02-09T14:52:24.437Z,122.70
2018-02-09T14:54:51.170Z,113.47
2018-02-09T14:57:17.938Z,104.97
2018-02-09T14:59:44.692Z,110.17
2018-02-09T15:02:11.430Z,116.47
2018-02-09T15:04:38.170Z,124.57
2018-02-09T15:07:04.903Z,108.73
2018-02-09T15:09:31.696Z,118.33
2018-02-09T15:11:58.412Z,107.03
2018-02-09T15:14:25.137Z,119.77
2018-02-09T15:16:51.860Z,112.30
2018-02-09T15:19:18.585Z,110.13
2018-02-09T15:21:45.316Z,124.03
2018-02-09T15:24:12.029Z,111.47
2018-02-09T15:26:39.262Z,126.57
2018-02-09T15:29:06.002Z,115.53
2018-02-09T15:31:32.729Z,113.43
2018-02-09T15:33:59.509Z,122.67
2018-02-09T15:36:26.295Z,115.80
2018-02-09T15:38:53.037Z,113.83
2018-02-09T15:41:19.768Z,118.90
2018-02-09T15:43:46.544Z,120.63
2018-02-09T15:46:13.255Z,119.13
2018-02-09T15:48:39.984Z,108.63
2018-02-09T15:51:06.735Z,116.40
2018-02-09T15:53:33.464Z,113.63
2018-02-09T15:56:00.211Z,123.60
2018-02-09T15:58:26.933Z,117.80
2018-02-09T16:00:53.636Z,124.50
2018-02-09T16:03:20.437Z,125.70
2018-02-09T16:05:47.120Z,124.13
2018-02-09T16:08:13.849Z,124.33
2018-02-09T16:10:40.580Z,120.10
2018-02-09T16:13:07.311Z,120.37
2018-02-09T16:15:34.058Z,124.97
2018-02-09T16:18:00.789Z,115.70
2018-02-09T16:20:27.492Z,129.77
2018-02-09T16:22:54.218Z,125.60
2018-02-09T16:25:20.947Z,120.63
2018-02-09T16:27:47.707Z,129.73
2018-02-09T16:30:14.445Z,124.17
2018-02-09T16:32:41.189Z,122.90
2018-02-09T16:35:07.926Z,117.23
2018-02-09T16:37:34.661Z,119.77
2018-02-09T16:40:01.416Z,127.50
2018-02-09T16:42:28.127Z,118.53
2018-02-09T16:44:54.886Z,120.07
2018-02-09T16:47:21.607Z,114.10
2018-02-09T16:49:48.400Z,110.03
2018-02-09T16:52:15.174Z,124.50
2018-02-09T16:54:41.937Z,116.77
2018-02-09T16:57:08.679Z,118.97
2018-02-09T16:59:35.392Z,119.50
2018-02-09T17:02:02.103Z,132.60
2018-02-09T17:04:28.846Z,122.03
2018-02-09T17:06:55.590Z,111.13
2018-02-09T17:09:22.329Z,122.97
2018-02-09T17:11:49.081Z,134.73
2018-02-09T17:14:15.791Z,150.30
2018-02-09T17:16:42.572Z,132.50
2018-02-09T17:19:09.324Z,131.23
2018-02-09T17:21:36.135Z,124.27
2018-02-09T17:24:02.848Z,132.97
2018-02-09T17:26:29.564Z,136.33
2018-02-09T17:28:56.298Z,139.13
2018-02-09T17:31:23.006Z,129.87
2018-02-09T17:33:49.751Z,123.50
2018-02-09T17:36:16.497Z,122.53
2018-02-09T17:38:43.230Z,119.30
2018-02-09T17:41:09.976Z,140.50
2018-02-09T17:43:36.779Z,130.07
2018-02-09T17:46:03.575Z,125.07
2018-02-09T17:48:30.299Z,126.93
2018-02-09T17:50:57.058Z,116.40
2018-02-09T17:53:23.800Z,117.60
2018-02-09T17:55:50.501Z,130.17
2018-02-09T17:58:17.230Z,119.50
2018-02-09T18:00:44.008Z,132.07
2018-02-09T18:03:10.752Z,126.53
2018-02-09T18:05:37.594Z,123.53
2018-02-09T18:08:04.331Z,118.30
2018-02-09T18:10:31.078Z,124.17
2018-02-09T18:12:57.805Z,132.57
2018-02-09T18:15:24.534Z,119.40
2018-02-09T18:17:51.286Z,124.40
2018-02-09T18:20:17.988Z,123.10
2018-02-09T18:22:44.841Z,125.63
2018-02-09T18:25:11.552Z,122.87
2018-02-09T18:27:38.349Z,120.80
2018-02-09T18:30:05.086Z,121.43
2018-02-09T18:32:31.827Z,123.03
2018-02-09T18:34:58.594Z,148.07
2018-02-09T18:37:25.390Z,142.00
2018-02-09T18:39:52.116Z,129.57
2018-02-09T18:42:18.889Z,135.60
2018-02-09T18:44:45.608Z,120.97
2018-02-09T18:47:12.363Z,126.43
2018-02-09T18:49:39.142Z,126.87
2018-02-09T18:52:05.853Z,144.97
2018-02-09T18:54:32.638Z,121.83
2018-02-09T18:56:59.399Z,146.80
2018-02-09T18:59:26.168Z,141.90
2018-02-09T19:01:52.897Z,138.87
2018-02-09T19:04:19.654Z,126.47
2018-02-09T19:06:46.408Z,128.50
2018-02-09T19:09:13.138Z,146.70
2018-02-09T19:11:39.922Z,130.37
2018-02-09T19:14:06.727Z,135.77
2018-02-09T19:16:33.469Z,135.37
2018-02-09T19:19:00.197Z,144.80
2018-02-09T19:21:26.941Z,144.57
2018-02-09T19:23:53.752Z,138.33
2018-02-09T19:26:20.612Z,145.47
2018-02-09T19:28:47.398Z,143.30
2018-02-09T19:31:14.180Z,170.60
2018-02-09T19:33:41.057Z,145.37
2018-02-09T19:36:07.881Z,149.57
2018-02-09T19:38:34.616Z,153.00
2018-02-09T19:41:01.385Z,159.83
2018-02-09T19:43:28.265Z,180.80
2018-02-09T19:45:55.002Z,154.20
2018-02-09T19:48:21.858Z,170.77
2018-02-09T19:50:48.622Z,177.63
2018-02-09T19:53:15.371Z,182.97
2018-02-09T19:55:42.220Z,176.70
2018-02-09T19:58:09.013Z,169.97
2018-02-09T20:00:35.758Z,174.93
2018-02-09T20:03:02.569Z,170.30
2018-02-09T20:05:29.324Z,180.43
2018-02-09T20:08:13.367Z,160.20
2018-02-09T20:10:40.185Z,180.23
2018-02-09T20:13:06.987Z,170.77
2018-02-09T20:16:02.178Z,176.57
2018-02-09T20:18:28.961Z,164.37
2018-02-09T20:20:55.745Z,172.13
2018-02-09T20:23:22.503Z,180.33
2018-02-09T20:25:49.257Z,176.03
2018-02-09T20:28:16.037Z,186.47
2018-02-09T20:30:42.805Z,173.50
2018-02-09T20:33:09.570Z,171.63
2018-02-09T20:35:36.365Z,174.73
2018-02-09T20:38:03.163Z,188.63
2018-02-09T20:40:29.973Z,180.67
2018-02-09T20:42:56.734Z,186.20
2018-02-09T20:45:23.465Z,173.80
2018-02-09T20:47:50.187Z,181.63
2018-02-09T20:50:16.916Z,172.87
2018-02-09T20:52:43.735Z,198.37
2018-02-09T20:55:10.499Z,193.07
2018-02-09T20:57:37.218Z,182.53
2018-02-09T21:00:03.981Z,212.83
2018-02-09T21:02:30.750Z,205.00
2018-02-09T21:04:57.482Z,191.70
2018-02-09T21:07:24.242Z,194.77
2018-02-09T21:09:51.007Z,201.30
2018-02-09T21:12:17.737Z,203.33
2018-02-09T21:14:44.469Z,199.40
2018-02-09T21:17:11.202Z,194.23
2018-02-09T21:19:37.951Z,186.03
2018-02-09T21:22:04.700Z,269.40
2018-02-09T21:24:31.409Z,195.90
2018-02-09T21:26:58.187Z,201.90
2018-02-09T21:29:24.918Z,182.60
2018-02-09T21:31:51.720Z,208.03
2018-02-09T21:34:18.454Z,181.73
2018-02-09T21:36:45.179Z,198.00
2018-02-09T21:39:11.941Z,224.17
2018-02-09T21:41:38.680Z,202.03
2018-02-09T21:44:10.558Z,196.60
2018-02-09T21:46:37.315Z,186.67
2018-02-09T21:49:04.042Z,188.90
2018-02-09T21:51:30.786Z,190.40
2018-02-09T21:53:57.548Z,192.70
2018-02-09T21:56:29.627Z,181.97
2018-02-09T21:58:56.389Z,196.63
2018-02-09T22:01:23.165Z,190.67
2018-02-09T22:03:49.906Z,179.30
2018-02-09T22:06:16.677Z,203.63
2018-02-09T22:08:43.451Z,198.70
2018-02-09T22:11:10.212Z,189.17
2018-02-09T22:13:36.963Z,186.27
2018-02-09T22:16:08.871Z,190.27
2018-02-09T22:18:37.559Z,202.40
2018-02-09T22:21:04.463Z,190.90
2018-02-09T22:23:31.919Z,178.20
2018-02-09T22:25:58.889Z,193.30
2018-02-09T22:28:26.076Z,184.83
2018-02-09T22:30:53.141Z,204.13
2018-02-09T22:33:19.975Z,217.57
2018-02-09T22:35:46.861Z,207.50
2018-02-09T22:38:13.950Z,192.13
2018-02-09T22:40:41.158Z,206.60
2018-02-09T22:43:08.296Z,220.20
2018-02-09T22:45:35.070Z,223.43
2018-02-09T22:48:02.190Z,209.73
2018-02-09T22:50:28.951Z,223.30
2018-02-09T22:52:55.703Z,227.40
2018-02-09T22:55:22.443Z,203.60
2018-02-09T22:57:49.184Z,204.03
2018-02-09T23:00:15.922Z,192.63
2018-02-09T23:02:42.666Z,186.30
2018-02-09T23:05:09.483Z,216.30
2018-02-09T23:07:36.240Z,205.87
2018-02-09T23:10:02.993Z,209.90
2018-02-09T23:12:29.757Z,232.40
2018-02-09T23:14:56.631Z,224.40
2018-02-09T23:17:23.456Z,199.10
2018-02-09T23:19:50.202Z,229.37
2018-02-09T23:22:16.923Z,232.47
2018-02-09T23:24:43.672Z,221.93
2018-02-09T23:27:10.405Z,223.40
2018-02-09T23:29:37.151Z,233.57
2018-02-09T23:32:03.899Z,232.53
2018-02-09T23:34:30.639Z,241.50
2018-02-09T23:36:57.379Z,265.87
2018-02-09T23:39:24.114Z,248.23
2018-02-09T23:41:50.819Z,239.73
2018-02-09T23:44:17.562Z,267.17
2018-02-09T23:46:45.236Z,264.10
2018-02-09T23:49:11.965Z,295.73
2018-02-09T23:51:38.725Z,256.70
2018-02-09T23:54:05.430Z,234.67
2018-02-09T23:56:32.171Z,246.93
2018-02-09T23:58:58.904Z,245.40
